ADDS METAR Data INFO
IDs: Format: Raw Decoded Include TAF

Data at: 0939 UTC 25 Jun 2018

KPAN 250935Z AUTO 00000KT 10SM CLR 19/01 A3011 RMK AO2
KPAN 250915Z AUTO 00000KT 10SM CLR 19/01 A3010 RMK AO2
KPAN 250855Z AUTO 00000KT 10SM CLR 19/01 A3011 RMK AO2
KPAN 250835Z AUTO 00000KT 10SM CLR 19/00 A3010 RMK AO2
KPAN 250815Z AUTO 33003KT 10SM CLR 19/00 A3010 RMK AO2
KPAN 250755Z AUTO 00000KT 10SM CLR 19/M00 A3010 RMK AO2
KPAN 250735Z AUTO 33004KT 10SM CLR 20/M00 A3010 RMK AO2
KPAN 250715Z AUTO 00000KT 10SM CLR 21/M01 A3010 RMK AO2
KPAN 250655Z AUTO 00000KT 10SM CLR 21/M01 A3010 RMK AO2
KPAN 250635Z AUTO 00000KT 10SM CLR 21/M01 A3009 RMK AO2
KPAN 250615Z AUTO 00000KT 10SM CLR 22/M01 A3009 RMK AO2
KPAN 250555Z AUTO 00000KT 10SM CLR 22/M00 A3009 RMK AO2
KPAN 250535Z AUTO 32003KT 10SM CLR 23/00 A3009 RMK AO2
KPAN 250515Z AUTO 31003KT 10SM CLR 23/01 A3009 RMK AO2
KPAN 250455Z AUTO 28004KT 10SM CLR 24/01 A3009 RMK AO2
KPAN 250435Z AUTO 27004KT 10SM CLR 24/01 A3009 RMK AO2
KPAN 250415Z AUTO 25005KT 10SM CLR 25/00 A3008 RMK AO2
KPAN 250355Z AUTO 25005KT 10SM CLR 25/M00 A3008 RMK AO2
KPAN 250335Z AUTO 25006KT 10SM CLR 26/M01 A3007 RMK AO2
KPAN 250315Z AUTO 26006KT 10SM CLR 26/M02 A3007 RMK AO2
KPAN 250255Z AUTO 24005G11KT 10SM CLR 26/M03 A3007 RMK AO2
KPAN 250235Z AUTO 25008G13KT 10SM CLR 27/M03 A3007 RMK AO2
KPAN 250215Z AUTO 23007G14KT 10SM CLR 28/M04 A3007 RMK AO2
KPAN 250155Z AUTO 23006G13KT 10SM CLR 29/M04 A3007 RMK AO2
KPAN 250135Z AUTO 22008G15KT 10SM CLR 29/M04 A3007 RMK AO2
KPAN 250115Z AUTO 25008G16KT 10SM CLR 30/M04 A3006 RMK AO2
KPAN 250055Z AUTO 25007G14KT 230V290 10SM CLR 30/M05 A3006 RMK AO2
KPAN 250035Z AUTO 25008KT 10SM CLR 31/M06 A3006 RMK AO2
KPAN 250015Z AUTO VRB06G16KT 10SM CLR 31/M06 A3007 RMK AO2
KPAN 242355Z AUTO 27010G17KT 10SM CLR 30/M05 A3007 RMK AO2
KPAN 242335Z AUTO 24011KT 210V270 10SM CLR 31/M06 A3008 RMK AO2
KPAN 242315Z AUTO 26010KT 10SM CLR 32/M05 A3008 RMK AO2
KPAN 242255Z AUTO 25010G24KT 220V280 10SM CLR 31/M04 A3008 RMK AO2
KPAN 242235Z AUTO 25012G17KT 220V280 10SM CLR 31/M05 A3009 RMK AO2
KPAN 242215Z AUTO 30007G15KT 270V340 10SM CLR 31/M05 A3009 RMK AO2
KPAN 242155Z AUTO 29013G19KT 10SM CLR 31/M04 A3010 RMK AO2
KPAN 242135Z AUTO 27008G18KT 10SM CLR 31/M04 A3010 RMK AO2
KPAN 242115Z AUTO 26008G15KT 220V300 10SM CLR 30/M05 A3010 RMK AO2
KPAN 242055Z AUTO 22008G18KT 180V280 10SM CLR 30/M04 A3011 RMK AO2
KPAN 242035Z AUTO 25009G15KT 210V300 10SM CLR 30/M03 A3011 RMK AO2
KPAN 242015Z AUTO 27009G17KT 200V300 10SM CLR 30/M04 A3012 RMK AO2
KPAN 241955Z AUTO 23011G19KT 210V270 10SM CLR 30/M03 A3012 RMK AO2
KPAN 241935Z AUTO 27009G14KT 240V310 10SM CLR 30/M03 A3013 RMK AO2
KPAN 241915Z AUTO 30008G14KT 270V330 10SM CLR 29/M03 A3013 RMK AO2
KPAN 241855Z AUTO 24012G17KT 10SM CLR 29/M03 A3013 RMK AO2
KPAN 241835Z AUTO VRB05G21KT 10SM CLR 29/M03 A3013 RMK AO2
KPAN 241815Z AUTO 27008G16KT 10SM CLR 29/M03 A3014 RMK AO2
KPAN 241755Z AUTO 25007G15KT 220V280 10SM CLR 28/M03 A3015 RMK AO2
KPAN 241735Z AUTO 27008G13KT 240V300 10SM CLR 28/M02 A3014 RMK AO2
KPAN 241715Z AUTO 25008KT 220V280 10SM CLR 28/M03 A3014 RMK AO2
KPAN 241655Z AUTO VRB06KT 10SM CLR 27/M02 A3014 RMK AO2
KPAN 241635Z AUTO 23008G14KT 10SM CLR 27/M02 A3014 RMK AO2
KPAN 241615Z AUTO 25008KT 230V290 10SM CLR 27/M01 A3013 RMK AO2
KPAN 241555Z AUTO 29009G14KT 10SM CLR 26/M02 A3013 RMK AO2
KPAN 241535Z AUTO VRB05G10KT 10SM CLR 26/M01 A3013 RMK AO2
KPAN 241515Z AUTO VRB04KT 10SM CLR 25/M00 A3013 RMK AO2
KPAN 241455Z AUTO 00000G10KT 10SM CLR 25/02 A3013 RMK AO2
KPAN 241435Z AUTO 00000KT 10SM CLR 23/03 A3012 RMK AO2
KPAN 241415Z AUTO 00000KT 10SM CLR 22/05 A3011 RMK AO2
KPAN 241355Z AUTO 00000KT 10SM CLR 20/05 A3011 RMK AO2
KPAN 241335Z AUTO 00000KT 10SM CLR 20/05 A3010 RMK AO2
KPAN 241315Z AUTO 00000KT 10SM CLR 18/05 A3009 RMK AO2
KPAN 241255Z AUTO 00000KT 10SM CLR 18/05 A3008 RMK AO2
KPAN 241235Z AUTO 00000KT 10SM CLR 17/04 A3008 RMK AO2
KPAN 241215Z AUTO 00000KT 10SM CLR 17/05 A3007 RMK AO2
KPAN 241155Z AUTO 12003KT 10SM CLR 18/05 A3006 RMK AO2
KPAN 241135Z AUTO 00000KT 10SM CLR 19/06 A3005 RMK AO2
KPAN 241115Z AUTO 00000KT 10SM CLR 18/05 A3004 RMK AO2
KPAN 241055Z AUTO 18003KT 10SM CLR 20/05 A3004 RMK AO2
KPAN 241035Z AUTO 00000KT 10SM CLR 20/05 A3003 RMK AO2
KPAN 241015Z AUTO VRB04KT 10SM CLR 21/06 A3003 RMK AO2
KPAN 240955Z AUTO 22005KT 10SM CLR 21/06 A3002 RMK AO2
KPAN 240935Z AUTO VRB03KT 10SM CLR 21/05 A3002 RMK AO2
KPAN 240915Z AUTO 30003KT 10SM CLR 22/05 A3002 RMK AO2
KPAN 240855Z AUTO 28005KT 10SM CLR 22/06 A3002 RMK AO2
KPAN 240835Z AUTO 27004KT 10SM CLR 22/05 A3002 RMK AO2
KPAN 240815Z AUTO 30003KT 10SM CLR 22/05 A3002 RMK AO2
KPAN 240755Z AUTO 29005KT 10SM CLR 23/06 A3003 RMK AO2
KPAN 240735Z AUTO 28006KT 10SM CLR 24/06 A3002 RMK AO2
KPAN 240715Z AUTO 29005KT 10SM CLR 24/05 A3003 RMK AO2
KPAN 240655Z AUTO 29005KT 10SM CLR 24/05 A3003 RMK AO2
KPAN 240635Z AUTO 27005KT 10SM CLR 24/05 A3003 RMK AO2
KPAN 240615Z AUTO 26006KT 10SM CLR 24/04 A3004 RMK AO2
KPAN 240555Z AUTO 26006G11KT 10SM CLR 25/04 A3004 RMK AO2
KPAN 240535Z AUTO 25006KT 10SM CLR 25/04 A3004 RMK AO2
KPAN 240515Z AUTO 25005KT 10SM CLR 25/04 A3004 RMK AO2
KPAN 240455Z AUTO 26004KT 10SM CLR 25/04 A3004 RMK AO2
KPAN 240435Z AUTO 24004KT 10SM CLR 26/04 A3004 RMK AO2
KPAN 240415Z AUTO 24005KT 10SM CLR 26/04 A3004 RMK AO2
KPAN 240355Z AUTO 23005KT 10SM CLR 27/04 A3003 RMK AO2
KPAN 240335Z AUTO 24006KT 10SM CLR 27/03 A3003 RMK AO2
KPAN 240315Z AUTO 23005G11KT 10SM CLR 27/03 A3003 RMK AO2
KPAN 240255Z AUTO 23005G11KT 10SM CLR 28/03 A3002 RMK AO2
KPAN 240235Z AUTO 23008G14KT 10SM CLR 28/03 A3002 RMK AO2
KPAN 240215Z AUTO 23008KT 10SM CLR 29/02 A3002 RMK AO2
KPAN 240155Z AUTO 23011G16KT 200V270 10SM CLR 30/01 A3001 RMK AO2
KPAN 240135Z AUTO 24008G14KT 10SM CLR 30/M00 A3001 RMK AO2
KPAN 240115Z AUTO 23010G16KT 10SM CLR 31/M01 A3001 RMK AO2
KPAN 240055Z AUTO 27009KT 10SM CLR 31/M01 A3001 RMK AO2
KPAN 240035Z AUTO 26011G18KT 230V290 10SM CLR 31/M02 A3001 RMK AO2
KPAN 240015Z AUTO 22008G15KT 10SM CLR 31/M04 A3001 RMK AO2
KPAN 232355Z AUTO 24013G18KT 10SM CLR 31/M06 A3002 RMK AO2
KPAN 232335Z AUTO 24014G23KT 10SM CLR 32/M06 A3002 RMK AO2
KPAN 232315Z AUTO 26014G19KT 10SM CLR 32/M05 A3002 RMK AO2
KPAN 232255Z AUTO 25013G22KT 10SM CLR 32/M04 A3003 RMK AO2
KPAN 232235Z AUTO 25014G23KT 10SM CLR 33/M04 A3003 RMK AO2
KPAN 232215Z AUTO 27013G20KT 10SM CLR 33/M04 A3003 RMK AO2
KPAN 232155Z AUTO 26017G23KT 10SM CLR 33/M04 A3003 RMK AO2